createdAt,value
2023-11-19T00:00:02.951Z,180.73
2023-11-19T00:00:53.563Z,222.66
2023-11-19T00:01:33.114Z,175.74
2023-11-19T00:02:18.229Z,187.72
2023-11-19T00:03:03.472Z,188.72
2023-11-19T00:03:49.502Z,195.71
2023-11-19T00:04:33.471Z,204.69
2023-11-19T00:05:18.630Z,221.67
2023-11-19T00:06:03.691Z,237.58
2023-11-19T00:06:48.459Z,177.68
2023-11-19T00:07:35.621Z,159.71
2023-11-19T00:08:18.762Z,165.70
2023-11-19T00:09:03.860Z,133.76
2023-11-19T00:09:48.857Z,144.64
2023-11-19T00:10:34.031Z,182.67
2023-11-19T00:11:18.955Z,150.68
2023-11-19T00:12:04.207Z,129.77
2023-11-19T00:12:49.435Z,127.77
2023-11-19T00:13:33.924Z,140.75
2023-11-19T00:14:19.055Z,137.75
2023-11-19T00:15:04.217Z,142.75
2023-11-19T00:15:49.273Z,172.69
2023-11-19T00:16:34.285Z,177.68
2023-11-19T00:17:19.586Z,230.59
2023-11-19T00:18:04.672Z,141.75
2023-11-19T00:18:49.665Z,148.73
2023-11-19T00:19:34.643Z,167.70
2023-11-19T00:20:19.664Z,212.48
2023-11-19T00:21:04.621Z,213.62
2023-11-19T00:21:49.944Z,125.78
2023-11-19T00:22:34.663Z,197.65
2023-11-19T00:23:19.939Z,194.65
2023-11-19T00:24:05.005Z,203.57
2023-11-19T00:24:50.119Z,337.29
2023-11-19T00:25:35.150Z,319.33
2023-11-19T00:26:20.172Z,406.15
2023-11-19T00:27:05.043Z,522.90
2023-11-19T00:27:50.320Z,522.90
2023-11-19T00:28:35.381Z,78.83
2023-11-19T00:29:20.054Z,59.87
2023-11-19T00:30:05.369Z,54.88
2023-11-19T00:30:50.793Z,80.83
2023-11-19T00:31:36.443Z,60.87
2023-11-19T00:32:20.642Z,79.83
2023-11-19T00:33:05.382Z,66.86
2023-11-19T00:33:50.919Z,42.91
2023-11-19T00:34:35.703Z,31.93
2023-11-19T00:35:20.579Z,26.94
2023-11-19T00:36:05.708Z,32.93
2023-11-19T00:36:50.508Z,20.96
2023-11-19T00:37:35.820Z,13.97
2023-11-19T00:38:20.897Z,14.97
2023-11-19T00:39:05.547Z,11.97
2023-11-19T00:39:50.895Z,12.97
2023-11-19T00:40:36.119Z,13.97
2023-11-19T00:41:20.993Z,10.97
2023-11-19T00:42:05.961Z,11.97
2023-11-19T00:42:51.256Z,17.96
2023-11-19T00:43:36.390Z,12.97
2023-11-19T00:44:21.106Z,16.96
2023-11-19T00:45:06.216Z,18.96
2023-11-19T00:45:51.396Z,14.96
2023-11-19T00:46:36.514Z,9.98
2023-11-19T00:47:21.557Z,12.97
2023-11-19T00:48:06.324Z,10.97
2023-11-19T00:48:51.585Z,13.97
2023-11-19T00:49:36.756Z,14.96
2023-11-19T00:50:21.574Z,19.95
2023-11-19T00:51:06.675Z,18.95
2023-11-19T00:51:51.916Z,12.97
2023-11-19T00:52:36.970Z,10.97
2023-11-19T00:53:22.124Z,11.97
2023-11-19T00:54:06.657Z,13.97
2023-11-19T00:54:52.051Z,12.97
2023-11-19T00:56:21.931Z,11.97
2023-11-19T00:57:07.054Z,15.96
2023-11-19T00:57:52.495Z,16.96
2023-11-19T00:58:37.019Z,12.97
2023-11-19T00:59:22.271Z,12.97
2023-11-19T01:00:07.365Z,11.97
2023-11-19T01:00:52.420Z,18.95
2023-11-19T01:01:37.381Z,12.97
2023-11-19T01:02:22.714Z,14.95
2023-11-19T01:03:07.830Z,9.98
2023-11-19T01:03:52.640Z,11.97
2023-11-19T01:04:37.909Z,11.97
2023-11-19T01:05:23.858Z,19.95
2023-11-19T01:06:07.712Z,16.96
2023-11-19T01:06:52.959Z,20.95
2023-11-19T01:07:37.650Z,15.97
2023-11-19T01:08:23.048Z,12.97
2023-11-19T01:09:08.301Z,15.97
2023-11-19T01:09:52.985Z,14.97
2023-11-19T01:10:38.066Z,12.97
2023-11-19T01:11:23.268Z,9.98
2023-11-19T01:12:08.607Z,13.97
2023-11-19T01:12:53.560Z,9.98
2023-11-19T01:13:38.437Z,8.98
2023-11-19T01:14:23.198Z,13.97
2023-11-19T01:15:08.460Z,8.98
2023-11-19T01:15:53.911Z,10.98
2023-11-19T01:16:38.800Z,12.97
2023-11-19T01:17:23.628Z,11.97
2023-11-19T01:18:08.415Z,12.97
2023-11-19T01:18:57.907Z,12.97
2023-11-19T01:19:38.841Z,12.97
2023-11-19T01:20:23.997Z,12.97
2023-11-19T01:21:08.834Z,21.95
2023-11-19T01:21:54.038Z,18.96
2023-11-19T01:22:39.131Z,22.95
2023-11-19T01:23:24.214Z,51.89
2023-11-19T01:24:09.405Z,64.86
2023-11-19T01:24:54.301Z,71.85
2023-11-19T01:25:39.283Z,90.81
2023-11-19T01:26:24.331Z,126.73
2023-11-19T01:27:09.369Z,229.52
2023-11-19T01:27:54.336Z,307.35
2023-11-19T01:28:39.481Z,386.19
2023-11-19T01:29:24.738Z,437.08
2023-11-19T01:30:09.391Z,562.82
2023-11-19T01:30:54.380Z,458.04
2023-11-19T01:31:39.379Z,751.42
2023-11-19T01:32:40.013Z,751.42
2023-11-19T01:33:55.025Z,751.42
2023-11-19T01:34:39.773Z,1197.48
2023-11-19T01:35:26.097Z,1197.48
2023-11-19T01:36:11.677Z,940.68
2023-11-19T01:36:54.824Z,972.95
2023-11-19T01:37:39.605Z,1061.38
2023-11-19T01:38:24.691Z,983.93
2023-11-19T01:39:10.446Z,983.93
2023-11-19T01:40:40.070Z,1185.51
2023-11-19T01:41:25.020Z,1197.48
2023-11-19T01:42:10.197Z,1205.46
2023-11-19T01:42:55.050Z,828.26
2023-11-19T01:43:40.226Z,927.05
2023-11-19T01:44:25.252Z,1054.78
2023-11-19T01:45:10.335Z,877.06
2023-11-19T01:45:55.531Z,1002.89
2023-11-19T01:46:40.393Z,1201.47
2023-11-19T01:47:25.590Z,1215.44
2023-11-19T01:48:10.590Z,1216.44
2023-11-19T01:48:55.620Z,1196.48
2023-11-19T01:49:40.533Z,902.10
2023-11-19T01:50:26.017Z,1202.47
2023-11-19T01:51:11.267Z,1211.93
2023-11-19T01:51:56.296Z,1201.97
2023-11-19T01:52:41.392Z,1201.97
2023-11-19T01:53:26.267Z,1201.97
2023-11-19T01:54:11.415Z,1181.52
2023-11-19T01:54:56.285Z,1199.48
2023-11-19T01:55:41.206Z,1192.49
2023-11-19T01:56:26.242Z,1193.49
2023-11-19T01:57:11.371Z,1198.48
2023-11-19T01:57:56.391Z,1190.50
2023-11-19T01:58:41.588Z,951.82
2023-11-19T01:59:26.504Z,1123.00
2023-11-19T02:00:11.660Z,946.31
2023-11-19T02:00:56.997Z,893.12
2023-11-19T02:01:41.902Z,813.55
2023-11-19T02:02:26.937Z,745.67
2023-11-19T02:03:11.963Z,1022.18
2023-11-19T02:03:57.199Z,1135.97
2023-11-19T02:04:41.987Z,1115.01
2023-11-19T02:05:27.040Z,1123.00
2023-11-19T02:06:12.170Z,1137.97
2023-11-19T02:06:57.186Z,1140.96
2023-11-19T02:07:42.267Z,1155.94
2023-11-19T02:08:27.166Z,1132.98
2023-11-19T02:09:12.179Z,1166.92
2023-11-19T02:09:57.412Z,1138.97
2023-11-19T02:10:42.617Z,1134.97
2023-11-19T02:11:27.394Z,1156.94
2023-11-19T02:12:12.440Z,1118.02
2023-11-19T02:13:06.218Z,1182.89
2023-11-19T02:13:42.765Z,1133.61
2023-11-19T02:14:27.835Z,710.58
2023-11-19T02:15:12.672Z,1126.99
2023-11-19T02:15:57.884Z,1141.96
2023-11-19T02:16:42.824Z,1139.97
2023-11-19T02:17:27.978Z,1164.92
2023-11-19T02:18:13.129Z,1155.94
2023-11-19T02:18:58.102Z,488.15
2023-11-19T02:19:42.827Z,1129.98
2023-11-19T02:20:28.140Z,1134.97
2023-11-19T02:21:12.818Z,1123.00
2023-11-19T02:21:58.085Z,1141.96
2023-11-19T02:22:43.374Z,399.20
2023-11-19T02:23:28.145Z,381.90
2023-11-19T02:24:13.261Z,457.17
2023-11-19T02:24:58.350Z,446.83
2023-11-19T02:25:43.645Z,446.83
2023-11-19T02:26:28.425Z,446.83
2023-11-19T02:27:13.722Z,1133.29
2023-11-19T02:27:58.705Z,1133.29
2023-11-19T02:28:43.611Z,367.68
2023-11-19T02:29:28.595Z,367.68
2023-11-19T02:30:13.869Z,367.68
2023-11-19T02:30:59.021Z,367.68
2023-11-19T02:31:43.980Z,367.68
2023-11-19T02:32:29.463Z,367.68
2023-11-19T02:33:13.926Z,367.68
2023-11-19T02:33:59.102Z,367.68
2023-11-19T02:34:43.938Z,367.68
2023-11-19T02:35:29.494Z,367.68
2023-11-19T02:36:14.267Z,367.68
2023-11-19T02:36:59.652Z,367.68
2023-11-19T02:37:44.292Z,1129.30
2023-11-19T02:38:29.735Z,1129.30
2023-11-19T02:39:14.510Z,1129.30
2023-11-19T02:39:59.682Z,1129.30
2023-11-19T02:40:44.689Z,1129.30
2023-11-19T02:41:29.598Z,1129.30
2023-11-19T02:42:15.106Z,1129.30
2023-11-19T02:42:59.795Z,1129.30
2023-11-19T02:43:44.848Z,1129.30
2023-11-19T02:44:29.832Z,1129.30
2023-11-19T02:45:15.028Z,1129.30
2023-11-19T02:46:00.218Z,1129.30
2023-11-19T02:46:45.222Z,1129.30
2023-11-19T02:47:30.051Z,1129.30
2023-11-19T02:48:15.154Z,1129.30
2023-11-19T02:49:00.367Z,1129.30
2023-11-19T02:49:45.225Z,1129.30
2023-11-19T02:50:32.150Z,1129.30
2023-11-19T02:51:15.621Z,1129.30
2023-11-19T02:52:00.559Z,1129.30
2023-11-19T02:52:45.647Z,1129.30
2023-11-19T02:53:30.724Z,1129.30
2023-11-19T02:54:15.809Z,1129.30
2023-11-19T02:55:01.127Z,1129.30
2023-11-19T02:55:45.986Z,1129.30
2023-11-19T02:56:31.089Z,1129.30
2023-11-19T02:58:01.225Z,1129.30
2023-11-19T02:58:46.062Z,1129.30
2023-11-19T02:59:30.964Z,1129.30
2023-11-19T03:00:15.978Z,1129.30
2023-11-19T03:01:01.249Z,940.07
2023-11-19T03:01:46.155Z,1134.97
2023-11-19T03:02:31.409Z,779.63
2023-11-19T03:03:16.396Z,1167.92
2023-11-19T03:04:01.231Z,1128.27
2023-11-19T03:04:46.237Z,1095.85
2023-11-19T03:05:31.345Z,1123.50
2023-11-19T03:06:16.389Z,1149.35
2023-11-19T03:07:01.476Z,1191.53
2023-11-19T03:07:46.845Z,1206.85
2023-11-19T03:08:31.571Z,1206.85
2023-11-19T03:09:16.672Z,1210.84
2023-11-19T03:10:01.840Z,1205.85
2023-11-19T03:10:46.930Z,1195.87
2023-11-19T03:11:32.031Z,623.89
2023-11-19T03:12:17.092Z,1191.87
2023-11-19T03:13:01.647Z,531.05
2023-11-19T03:13:47.010Z,473.16
2023-11-19T03:14:32.053Z,540.04
2023-11-19T03:15:17.016Z,910.38
2023-11-19T03:16:02.111Z,282.50
2023-11-19T03:16:47.166Z,94.83
2023-11-19T03:17:32.188Z,91.84
2023-11-19T03:18:17.398Z,112.80
2023-11-19T03:19:02.127Z,78.86
2023-11-19T03:19:47.744Z,46.92
2023-11-19T03:20:32.507Z,52.91
2023-11-19T03:21:17.399Z,43.92
2023-11-19T03:22:02.730Z,33.94
2023-11-19T03:22:47.385Z,27.95
2023-11-19T03:23:32.593Z,26.95
2023-11-19T03:24:17.346Z,38.93
2023-11-19T03:25:02.413Z,49.90
2023-11-19T03:25:47.491Z,51.89
2023-11-19T03:26:32.910Z,37.92
2023-11-19T03:27:17.925Z,35.91
2023-11-19T03:28:02.904Z,40.90
2023-11-19T03:28:48.033Z,35.91
2023-11-19T03:29:32.740Z,34.91
2023-11-19T03:30:18.005Z,42.89
2023-11-19T03:31:02.892Z,84.79
2023-11-19T03:31:47.924Z,33.92
2023-11-19T03:32:33.346Z,42.89
2023-11-19T03:33:18.498Z,30.92
2023-11-19T03:34:03.168Z,30.92
2023-11-19T03:34:48.331Z,26.93
2023-11-19T03:35:33.065Z,38.87
2023-11-19T03:36:18.439Z,31.89
2023-11-19T03:37:03.669Z,27.91
2023-11-19T03:37:48.506Z,32.89
2023-11-19T03:38:33.603Z,27.91
2023-11-19T03:39:18.430Z,33.89
2023-11-19T03:40:03.724Z,63.79
2023-11-19T03:40:48.803Z,75.75
2023-11-19T03:42:18.626Z,66.78
2023-11-19T03:43:03.604Z,99.67
2023-11-19T03:43:48.696Z,107.64
2023-11-19T03:44:34.056Z,102.66
2023-11-19T03:45:18.745Z,125.58
2023-11-19T03:46:04.190Z,137.54
2023-11-19T03:46:49.064Z,91.69
2023-11-19T03:47:34.080Z,83.72
2023-11-19T03:48:19.111Z,96.68
2023-11-19T03:49:04.321Z,112.62
2023-11-19T03:49:49.083Z,149.50
2023-11-19T03:50:34.265Z,119.60
2023-11-19T03:51:19.441Z,140.53
2023-11-19T03:52:04.227Z,153.49
2023-11-19T03:52:49.708Z,154.48
2023-11-19T03:53:34.773Z,107.64
2023-11-19T03:54:19.465Z,104.65
2023-11-19T03:55:04.628Z,125.58
2023-11-19T03:55:49.891Z,153.49
2023-11-19T03:56:34.888Z,124.58
2023-11-19T03:57:19.852Z,99.67
2023-11-19T03:58:05.133Z,115.48
2023-11-19T03:58:49.671Z,116.61
2023-11-19T03:59:34.908Z,86.71
2023-11-19T04:00:20.192Z,97.67
2023-11-19T04:01:05.038Z,189.15
2023-11-19T04:01:50.236Z,144.44
2023-11-19T04:02:35.271Z,148.42
2023-11-19T04:03:20.282Z,124.52
2023-11-19T04:04:05.254Z,125.51
2023-11-19T04:04:50.602Z,96.62
2023-11-19T04:05:35.607Z,100.48
2023-11-19T04:06:20.302Z,105.59
2023-11-19T04:07:51.130Z,144.35
2023-11-19T04:07:58.536Z,99.61
2023-11-19T04:08:36.343Z,96.62
2023-11-19T04:09:21.139Z,88.54
2023-11-19T04:10:06.300Z,97.62
2023-11-19T04:10:51.437Z,98.62
2023-11-19T04:11:36.230Z,74.71
2023-11-19T04:12:21.431Z,63.75
2023-11-19T04:13:06.139Z,76.70
2023-11-19T04:13:51.341Z,87.66
2023-11-19T04:14:36.210Z,71.72
2023-11-19T04:15:21.342Z,88.66
2023-11-19T04:16:06.705Z,68.73
2023-11-19T04:16:51.386Z,65.66
2023-11-19T04:17:36.474Z,60.76
2023-11-19T04:18:21.903Z,61.76
2023-11-19T04:19:06.548Z,113.56
2023-11-19T04:19:51.805Z,128.50
2023-11-19T04:20:36.856Z,93.64
2023-11-19T04:21:21.991Z,83.67
2023-11-19T04:22:06.780Z,80.69
2023-11-19T04:22:52.423Z,87.55
2023-11-19T04:23:37.181Z,89.65
2023-11-19T04:24:21.956Z,119.54
2023-11-19T04:25:07.428Z,104.59
2023-11-19T04:25:52.200Z,144.44
2023-11-19T04:26:37.274Z,188.27
2023-11-19T04:27:22.059Z,214.89
2023-11-19T04:28:07.168Z,250.03
2023-11-19T04:28:52.485Z,246.72
2023-11-19T04:29:37.535Z,246.04
2023-11-19T04:30:22.696Z,218.87
2023-11-19T04:31:07.877Z,176.31
2023-11-19T04:31:52.453Z,187.03
2023-11-19T04:32:37.555Z,187.27
2023-11-19T04:33:22.661Z,192.25
2023-11-19T04:34:08.395Z,232.10
2023-11-19T04:34:52.951Z,232.10
2023-11-19T04:35:38.017Z,276.92
2023-11-19T04:36:22.742Z,246.04
2023-11-19T04:37:53.102Z,218.15
2023-11-19T04:38:38.334Z,245.05
2023-11-19T04:39:23.060Z,204.21
2023-11-19T04:40:08.730Z,234.09
2023-11-19T04:40:53.503Z,234.09
2023-11-19T04:41:38.334Z,210.18
2023-11-19T04:42:23.512Z,192.25
2023-11-19T04:43:08.763Z,207.19
2023-11-19T04:43:53.349Z,216.16
2023-11-19T04:44:38.664Z,203.21
2023-11-19T04:45:23.930Z,203.21
2023-11-19T04:46:08.699Z,244.05
2023-11-19T04:46:53.987Z,275.93
2023-11-19T04:47:39.084Z,247.04
2023-11-19T04:48:23.746Z,262.98
2023-11-19T04:49:09.020Z,258.00
2023-11-19T04:49:54.285Z,246.04
2023-11-19T04:50:38.880Z,262.98
2023-11-19T04:51:24.048Z,230.11
2023-11-19T04:52:09.082Z,258.00
2023-11-19T04:52:54.143Z,244.05
2023-11-19T04:53:39.490Z,237.08
2023-11-19T04:54:24.156Z,215.16
2023-11-19T04:55:09.315Z,199.23
2023-11-19T04:55:55.003Z,265.63
2023-11-19T04:56:39.562Z,208.19
2023-11-19T04:57:24.453Z,183.29
2023-11-19T04:58:09.736Z,221.14
2023-11-19T04:58:54.763Z,228.11
2023-11-19T04:59:39.506Z,227.12
2023-11-19T05:00:25.046Z,212.17
2023-11-19T05:01:10.139Z,202.21
2023-11-19T05:01:54.681Z,223.13
2023-11-19T05:02:40.053Z,195.24
2023-11-19T05:03:25.237Z,193.35
2023-11-19T05:04:10.572Z,220.46
2023-11-19T05:04:55.513Z,229.43
2023-11-19T05:05:40.464Z,225.12
2023-11-19T05:06:25.621Z,242.19
2023-11-19T05:07:10.326Z,247.89
2023-11-19T05:07:55.845Z,245.18
2023-11-19T05:08:40.622Z,269.10
2023-11-19T05:09:25.598Z,241.19
2023-11-19T05:10:10.654Z,272.59
2023-11-19T05:10:55.624Z,297.84
2023-11-19T05:11:51.567Z,187.27
2023-11-19T05:12:25.716Z,252.02
2023-11-19T05:13:11.039Z,252.02
2023-11-19T05:13:55.866Z,238.07
2023-11-19T05:14:40.930Z,258.00
2023-11-19T05:15:26.011Z,260.99
2023-11-19T05:16:10.895Z,260.99
2023-11-19T05:16:56.203Z,105.59
2023-11-19T05:17:41.321Z,37.83
2023-11-19T05:18:26.253Z,49.81
2023-11-19T05:19:11.402Z,47.81
2023-11-19T05:19:56.752Z,44.83
2023-11-19T05:20:41.510Z,45.82
2023-11-19T05:21:26.447Z,48.81
2023-11-19T05:22:11.915Z,41.78
2023-11-19T05:22:56.767Z,46.82
2023-11-19T05:23:41.991Z,38.80
2023-11-19T05:24:26.902Z,47.81
2023-11-19T05:25:11.814Z,45.82
2023-11-19T05:25:56.601Z,74.71
2023-11-19T05:26:41.782Z,36.86
2023-11-19T05:27:27.066Z,43.83
2023-11-19T05:28:11.994Z,42.86
2023-11-19T05:28:56.771Z,44.85
2023-11-19T05:29:41.923Z,44.85
2023-11-19T05:30:27.126Z,41.86
2023-11-19T05:31:12.308Z,35.88
2023-11-19T05:31:57.527Z,35.88
2023-11-19T05:32:42.412Z,39.87
2023-11-19T05:33:27.136Z,32.89
2023-11-19T05:34:12.592Z,42.86
2023-11-19T05:34:57.427Z,48.84
2023-11-19T05:35:42.598Z,43.85
2023-11-19T05:36:27.586Z,43.85
2023-11-19T05:37:12.730Z,40.86
2023-11-19T05:37:57.590Z,38.87
2023-11-19T05:38:42.682Z,44.85
2023-11-19T05:39:27.937Z,46.84
2023-11-19T05:40:13.038Z,46.84
2023-11-19T05:40:57.959Z,78.65
2023-11-19T05:41:42.876Z,41.86
2023-11-19T05:42:28.030Z,41.81
2023-11-19T05:43:13.077Z,39.87
2023-11-19T05:43:57.841Z,47.84
2023-11-19T05:44:42.947Z,57.81
2023-11-19T05:45:28.016Z,58.74
2023-11-19T05:46:58.407Z,51.83
2023-11-19T05:47:43.231Z,41.86
2023-11-19T05:48:28.056Z,46.84
2023-11-19T05:49:13.562Z,43.85
2023-11-19T05:49:58.561Z,53.82
2023-11-19T05:50:43.444Z,75.75
2023-11-19T05:51:28.527Z,89.70
2023-11-19T05:52:13.785Z,103.65
2023-11-19T05:52:58.547Z,95.68
2023-11-19T05:53:43.859Z,122.59
2023-11-19T05:54:30.356Z,179.40
2023-11-19T05:55:14.339Z,205.31
2023-11-19T05:55:58.974Z,262.12
2023-11-19T05:56:43.490Z,205.31
2023-11-19T05:57:28.963Z,220.26
2023-11-19T05:58:14.169Z,220.26
2023-11-19T05:58:59.025Z,183.38
2023-11-19T05:59:44.030Z,161.46
2023-11-19T06:00:29.306Z,147.34
2023-11-19T06:01:14.243Z,152.49
2023-11-19T06:01:59.255Z,213.28
2023-11-19T06:02:44.327Z,224.25
2023-11-19T06:03:29.873Z,239.20
2023-11-19T06:04:14.521Z,203.32
2023-11-19T06:04:59.546Z,225.24
2023-11-19T06:05:44.793Z,240.19
2023-11-19T06:06:29.642Z,231.22
2023-11-19T06:07:14.313Z,257.14
2023-11-19T06:07:59.757Z,261.12
2023-11-19T06:08:45.116Z,258.13
2023-11-19T06:09:29.647Z,254.15
2023-11-19T06:10:14.760Z,244.18
2023-11-19T06:10:59.886Z,333.88
2023-11-19T06:11:44.833Z,238.20
2023-11-19T06:12:29.932Z,273.08
2023-11-19T06:13:15.170Z,239.20
2023-11-19T06:13:59.955Z,235.21
2023-11-19T06:14:45.046Z,231.22
2023-11-19T06:15:30.326Z,175.41
2023-11-19T06:16:15.474Z,217.27
2023-11-19T06:17:00.522Z,169.43
2023-11-19T06:17:45.263Z,166.44
2023-11-19T06:18:30.425Z,143.52
2023-11-19T06:19:15.648Z,138.38
2023-11-19T06:20:00.664Z,131.56
2023-11-19T06:20:45.363Z,163.45
2023-11-19T06:21:30.531Z,156.48
2023-11-19T06:22:15.671Z,173.42
2023-11-19T06:23:00.632Z,172.42
2023-11-19T06:23:45.953Z,182.39
2023-11-19T06:24:30.556Z,192.35
2023-11-19T06:25:15.829Z,186.37
2023-11-19T06:26:01.020Z,303.98
2023-11-19T06:26:45.660Z,189.36
2023-11-19T06:27:30.928Z,203.32
2023-11-19T06:28:16.030Z,195.34
2023-11-19T06:29:01.099Z,194.35
2023-11-19T06:29:46.264Z,208.07
2023-11-19T06:30:31.353Z,204.31
2023-11-19T06:31:16.121Z,193.35
2023-11-19T06:32:14.495Z,197.34
2023-11-19T06:32:46.595Z,217.03
2023-11-19T06:33:31.384Z,193.35
2023-11-19T06:34:16.401Z,225.24
2023-11-19T06:35:01.652Z,192.35
2023-11-19T06:35:46.860Z,230.23
2023-11-19T06:36:31.923Z,189.36
2023-11-19T06:37:16.993Z,203.09
2023-11-19T06:38:01.757Z,205.31
2023-11-19T06:38:46.721Z,209.30
2023-11-19T06:39:31.926Z,199.33
2023-11-19T06:40:16.958Z,210.29
2023-11-19T06:41:02.044Z,262.12
2023-11-19T06:41:47.211Z,198.33
2023-11-19T06:42:31.922Z,194.35
2023-11-19T06:43:17.336Z,177.40
2023-11-19T06:44:02.137Z,179.40
2023-11-19T06:44:47.072Z,189.36
2023-11-19T06:45:32.504Z,185.38
2023-11-19T06:46:17.396Z,204.31
2023-11-19T06:47:02.295Z,191.36
2023-11-19T06:47:47.721Z,206.31
2023-11-19T06:48:32.411Z,173.42
2023-11-19T06:49:17.620Z,181.39
2023-11-19T06:50:02.308Z,486.37
2023-11-19T06:50:47.255Z,446.00
2023-11-19T06:51:32.259Z,1195.35
2023-11-19T06:52:17.270Z,1198.34
2023-11-19T06:53:02.683Z,1198.34
2023-11-19T06:53:47.702Z,1198.34
2023-11-19T06:54:32.634Z,790.35
2023-11-19T06:55:17.665Z,914.44
2023-11-19T06:56:02.873Z,914.44
2023-11-19T06:56:48.774Z,490.35
2023-11-19T06:57:32.735Z,464.19
2023-11-19T06:58:18.101Z,549.86
2023-11-19T06:59:02.754Z,761.04
2023-11-19T06:59:48.130Z,761.04
2023-11-19T07:00:32.825Z,561.12
2023-11-19T07:01:18.123Z,561.12
2023-11-19T07:02:03.006Z,715.22
2023-11-19T07:02:48.092Z,715.22
2023-11-19T07:03:33.151Z,884.56
2023-11-19T07:04:18.013Z,902.49
2023-11-19T07:05:03.175Z,1004.09
2023-11-19T07:05:48.305Z,1066.85
2023-11-19T07:06:35.680Z,1066.85
2023-11-19T07:07:18.211Z,573.77
2023-11-19T07:08:03.390Z,504.04
2023-11-19T07:08:48.464Z,1069.84
2023-11-19T07:09:33.500Z,781.96
2023-11-19T07:10:19.257Z,781.96
2023-11-19T07:11:04.604Z,781.96
2023-11-19T07:11:49.521Z,781.96
2023-11-19T07:12:34.440Z,781.96
2023-11-19T07:13:19.096Z,781.96
2023-11-19T07:14:04.242Z,1190.01
2023-11-19T07:14:49.240Z,1186.39
2023-11-19T07:15:33.954Z,1183.40
2023-11-19T07:16:21.451Z,1183.40
2023-11-19T07:17:04.405Z,1104.70
2023-11-19T07:18:02.157Z,1185.39
2023-11-19T07:18:34.501Z,764.03
2023-11-19T07:19:19.221Z,678.36
2023-11-19T07:20:04.505Z,746.10
2023-11-19T07:20:49.690Z,718.21
2023-11-19T07:21:34.436Z,808.29
2023-11-19T07:22:19.841Z,768.42
2023-11-19T07:23:04.893Z,817.26
2023-11-19T07:23:49.579Z,710.62
2023-11-19T07:24:35.019Z,562.11
2023-11-19T07:25:20.080Z,587.03
2023-11-19T07:26:04.816Z,728.56
2023-11-19T07:26:49.939Z,526.23
2023-11-19T07:27:34.708Z,376.74
2023-11-19T07:28:20.079Z,421.59
2023-11-19T07:29:05.118Z,418.60
2023-11-19T07:29:50.342Z,631.88
2023-11-19T07:30:35.802Z,681.71
2023-11-19T07:31:20.276Z,605.28
2023-11-19T07:32:05.466Z,573.08
2023-11-19T07:32:50.270Z,608.96
2023-11-19T07:33:35.540Z,604.97
2023-11-19T07:34:20.493Z,798.41
2023-11-19T07:35:05.510Z,837.19
2023-11-19T07:35:51.017Z,929.88
2023-11-19T07:36:35.536Z,714.60
2023-11-19T07:37:20.481Z,856.13
2023-11-19T07:38:06.021Z,871.08
2023-11-19T07:38:50.980Z,889.02
2023-11-19T07:39:35.785Z,785.37
2023-11-19T07:40:21.018Z,859.12
2023-11-19T07:41:05.883Z,884.03
2023-11-19T07:41:50.869Z,797.32
2023-11-19T07:42:36.188Z,761.45
2023-11-19T07:43:20.853Z,754.47
2023-11-19T07:44:06.005Z,764.44
2023-11-19T07:44:51.393Z,750.08
2023-11-19T07:45:36.102Z,800.89
2023-11-19T07:46:21.236Z,754.07
2023-11-19T07:47:06.484Z,716.21
2023-11-19T07:47:51.360Z,812.27
2023-11-19T07:48:36.467Z,823.24
2023-11-19T07:49:21.525Z,904.94
2023-11-19T07:50:06.326Z,942.84
2023-11-19T07:50:51.738Z,981.71
2023-11-19T07:51:36.591Z,838.19
2023-11-19T07:52:22.563Z,876.59
2023-11-19T07:53:06.959Z,957.28
2023-11-19T07:53:52.121Z,975.21
2023-11-19T07:54:36.999Z,862.11
2023-11-19T07:55:22.498Z,844.71
2023-11-19T07:56:07.256Z,867.63
2023-11-19T07:56:51.889Z,887.55
2023-11-19T07:57:37.164Z,872.61
2023-11-19T07:58:22.540Z,855.58
2023-11-19T07:59:07.494Z,892.53
2023-11-19T07:59:52.344Z,878.58
2023-11-19T08:00:37.443Z,877.59
2023-11-19T08:01:22.252Z,791.92
2023-11-19T08:02:07.482Z,809.85
2023-11-19T08:02:52.585Z,861.55
2023-11-19T08:03:37.881Z,776.98
2023-11-19T08:04:23.026Z,861.65
2023-11-19T08:05:07.942Z,860.65
2023-11-19T08:05:52.785Z,860.65
2023-11-19T08:06:37.731Z,826.78
2023-11-19T08:07:22.967Z,827.78
2023-11-19T08:08:07.845Z,910.46
2023-11-19T08:08:53.455Z,1037.64
2023-11-19T08:09:38.332Z,957.28
2023-11-19T08:10:23.035Z,957.28
2023-11-19T08:11:07.970Z,926.40
2023-11-19T08:11:53.027Z,926.40
2023-11-19T08:12:38.072Z,868.10
2023-11-19T08:13:23.363Z,926.84
2023-11-19T08:14:08.837Z,888.54
2023-11-19T08:14:53.288Z,888.54
2023-11-19T08:15:38.408Z,858.15
2023-11-19T08:16:23.648Z,802.40
2023-11-19T08:17:08.464Z,778.50
2023-11-19T08:17:53.802Z,808.21
2023-11-19T08:18:38.944Z,760.58
2023-11-19T08:19:23.877Z,760.58
2023-11-19T08:20:08.875Z,852.17
2023-11-19T08:20:54.129Z,917.88
2023-11-19T08:21:38.723Z,759.59
2023-11-19T08:22:23.967Z,749.63
2023-11-19T08:23:08.809Z,864.12
2023-11-19T08:23:53.989Z,884.03
2023-11-19T08:24:39.134Z,880.45
2023-11-19T08:25:24.612Z,900.35
2023-11-19T08:26:09.350Z,805.83
2023-11-19T08:27:39.279Z,787.33
2023-11-19T08:28:24.321Z,784.94
2023-11-19T08:29:09.486Z,790.91
2023-11-19T08:29:54.297Z,841.65
2023-11-19T08:30:39.418Z,839.02
2023-11-19T08:31:24.716Z,788.32
2023-11-19T08:32:09.775Z,770.43
2023-11-19T08:32:54.758Z,783.35
2023-11-19T08:33:39.739Z,803.24
2023-11-19T08:34:24.661Z,779.38
2023-11-19T08:35:10.088Z,757.34
2023-11-19T08:35:55.073Z,801.25
2023-11-19T08:36:39.882Z,744.58
2023-11-19T08:37:26.656Z,732.66
2023-11-19T08:38:09.856Z,759.50
2023-11-19T08:38:55.102Z,816.16
2023-11-19T08:39:40.193Z,812.72
2023-11-19T08:40:24.976Z,765.08
2023-11-19T08:41:10.222Z,698.60
2023-11-19T08:41:55.517Z,620.20
2023-11-19T08:42:40.343Z,681.73
2023-11-19T08:43:25.583Z,689.67
2023-11-19T08:44:10.660Z,674.78
2023-11-19T08:44:55.341Z,684.98
2023-11-19T08:45:40.847Z,679.03
2023-11-19T08:46:25.709Z,717.69
2023-11-19T08:47:12.166Z,733.55
2023-11-19T08:47:55.837Z,702.82
2023-11-19T08:48:41.057Z,672.30
2023-11-19T08:49:25.665Z,711.91
2023-11-19T08:50:11.079Z,764.38
2023-11-19T08:50:55.736Z,764.29
2023-11-19T08:51:40.798Z,731.71
2023-11-19T08:52:26.063Z,716.86
2023-11-19T08:53:10.927Z,754.48
2023-11-19T08:53:56.092Z,773.29
2023-11-19T08:54:41.347Z,821.81
2023-11-19T08:55:26.073Z,793.10
2023-11-19T08:56:11.443Z,764.38
2023-11-19T08:56:56.422Z,723.79
2023-11-19T08:57:41.084Z,778.25
2023-11-19T08:58:26.416Z,755.47
2023-11-19T08:59:11.277Z,836.66
2023-11-19T08:59:56.485Z,847.55
2023-11-19T09:00:41.642Z,888.15
2023-11-19T09:01:26.421Z,886.17
2023-11-19T09:02:11.575Z,891.12
2023-11-19T09:02:56.822Z,954.49
2023-11-19T09:03:41.757Z,989.14
2023-11-19T09:04:26.733Z,943.60
2023-11-19T09:05:12.353Z,1001.28
2023-11-19T09:05:56.745Z,1056.47
2023-11-19T09:06:41.910Z,899.04
2023-11-19T09:07:27.056Z,894.09
2023-11-19T09:08:11.978Z,1060.43
2023-11-19T09:08:57.124Z,1112.91
2023-11-19T09:09:42.218Z,1130.73
2023-11-19T09:10:27.512Z,1048.55
2023-11-19T09:11:12.325Z,1096.08
2023-11-19T09:11:57.447Z,1082.22
2023-11-19T09:12:42.487Z,1045.58
2023-11-19T09:13:27.417Z,1020.83
2023-11-19T09:14:12.598Z,1192.12
2023-11-19T09:14:57.263Z,1167.37
2023-11-19T09:15:42.674Z,1145.98
2023-11-19T09:16:27.656Z,1165.39
2023-11-19T09:17:12.580Z,1160.44
2023-11-19T09:17:57.776Z,1146.57
2023-11-19T09:18:42.736Z,1165.39
2023-11-19T09:19:27.852Z,1171.33
2023-11-19T09:20:12.692Z,1179.25
2023-11-19T09:20:57.951Z,1170.34
2023-11-19T09:21:42.608Z,1163.41
2023-11-19T09:22:27.703Z,1159.45
2023-11-19T09:23:12.978Z,1175.29
2023-11-19T09:23:57.670Z,1181.23
2023-11-19T09:24:42.996Z,1148.56
2023-11-19T09:25:28.061Z,1178.26
2023-11-19T09:26:12.996Z,1167.37
2023-11-19T09:26:58.423Z,1183.21
2023-11-19T09:27:43.005Z,1177.27
2023-11-19T09:28:28.211Z,1165.39
2023-11-19T09:29:13.197Z,1151.53